Time;durP1;ratioP1;P1;durP2;ratioP2;P2;SDS_P1;SDS_P2;PMS_P1;PMS_P2;Temp;Humidity;BMP_temperature;BMP_pressure;BME280_temperature;BME280_humidity;BME280_pressure;Samples;Min_cycle;Max_cycle;Signal;HPM_P1;HPM_P2
2024/03/13 00:02:02;;;;;;;;;;;24.00;45.10;;;;;;5075605;28;19934;-45
2024/03/13 00:04:34;;;;;;;;;;;24.00;45.00;;;;;;5082468;28;19917;-45
2024/03/13 00:07:01;;;;;;;;;;;23.90;44.90;;;;;;5074473;28;19913;-46
2024/03/13 00:09:26;;;;;;;;;;;23.90;45.00;;;;;;5081968;28;19979;-46
2024/03/13 00:11:52;;;;;;;;;;;23.90;45.00;;;;;;5080800;28;19931;-45
2024/03/13 00:14:18;;;;;;;;;;;23.90;45.00;;;;;;5082316;28;19912;-47
2024/03/13 00:16:44;;;;;;;;;;;23.80;45.60;;;;;;5080980;28;19912;-44
2024/03/13 00:19:10;;;;;;;;;;;23.80;45.10;;;;;;5079286;28;20741;-44
2024/03/13 00:21:38;;;;;;;;;;;23.80;44.90;;;;;;5078407;28;19923;-46
2024/03/13 00:24:04;;;;;;;;;;;23.80;44.90;;;;;;5079181;28;19912;-45
2024/03/13 00:26:30;;;;;;;;;;;23.80;44.80;;;;;;5075315;28;19917;-49
2024/03/13 00:28:56;;;;;;;;;;;23.70;44.90;;;;;;5080710;28;19916;-44
2024/03/13 00:31:22;;;;;;;;;;;23.70;44.90;;;;;;5076604;28;19909;-45
2024/03/13 00:33:48;;;;;;;;;;;23.70;44.80;;;;;;5072008;28;19912;-45
2024/03/13 00:36:14;;;;;;;;;;;23.70;44.80;;;;;;5082261;28;19912;-44
2024/03/13 00:38:40;;;;;;;;;;;23.70;44.70;;;;;;5075203;28;19908;-43
2024/03/13 00:41:07;;;;;;;;;;;23.60;44.60;;;;;;5081382;28;19923;-46
2024/03/13 00:43:33;;;;;;;;;;;23.60;44.70;;;;;;5086201;28;19920;-47
2024/03/13 00:45:59;;;;;;;;;;;23.60;44.80;;;;;;5071871;28;19926;-46
2024/03/13 00:48:31;;;;;;;;;;;23.60;44.60;;;;;;5070149;28;19944;-46
2024/03/13 00:51:00;;;;;;;;;;;23.50;44.60;;;;;;5080727;28;19923;-46
2024/03/13 00:53:27;;;;;;;;;;;23.50;44.50;;;;;;5081804;28;19922;-44
2024/03/13 00:55:55;;;;;;;;;;;23.50;44.60;;;;;;5081282;28;19909;-45
2024/03/13 00:58:22;;;;;;;;;;;23.50;44.60;;;;;;5075196;28;20539;-44
2024/03/13 01:00:49;;;;;;;;;;;23.40;44.50;;;;;;5071556;28;19908;-43
2024/03/13 01:03:19;;;;;;;;;;;23.40;44.60;;;;;;5080352;28;19919;-45
2024/03/13 01:05:45;;;;;;;;;;;23.40;44.60;;;;;;5080158;28;19949;-46
2024/03/13 01:08:14;;;;;;;;;;;23.30;44.50;;;;;;5073960;28;19912;-48
2024/03/13 01:10:40;;;;;;;;;;;23.30;44.60;;;;;;5080785;28;19950;-44
2024/03/13 01:13:06;;;;;;;;;;;23.30;44.60;;;;;;5083202;28;19924;-45
2024/03/13 01:15:33;;;;;;;;;;;23.20;45.20;;;;;;5081051;28;19919;-47
2024/03/13 01:17:59;;;;;;;;;;;23.20;44.60;;;;;;5080048;28;19912;-45
2024/03/13 01:20:25;;;;;;;;;;;23.20;44.60;;;;;;5075680;28;19983;-49
2024/03/13 01:22:55;;;;;;;;;;;23.20;44.60;;;;;;5069488;28;19916;-45
2024/03/13 01:25:24;;;;;;;;;;;23.20;44.80;;;;;;5076600;28;19916;-46
2024/03/13 01:27:53;;;;;;;;;;;23.20;45.00;;;;;;5073023;28;19951;-49
2024/03/13 01:30:21;;;;;;;;;;;23.10;44.90;;;;;;5081034;28;19919;-45
2024/03/13 01:32:48;;;;;;;;;;;23.10;44.90;;;;;;5076860;28;19963;-46
2024/03/13 01:35:16;;;;;;;;;;;23.10;45.00;;;;;;5081131;28;19944;-50
2024/03/13 01:37:58;;;;;;;;;;;23.10;45.00;;;;;;5084566;28;19919;-46
2024/03/13 01:57:14;;;;;;;;;;;22.90;45.00;;;;;;5070220;28;19915;-45
2024/03/13 02:02:22;;;;;;;;;;;22.90;45.10;;;;;;5070418;28;19909;-49
2024/03/13 02:02:36;;;;;;;;;;;22.90;45.10;;;;;;5076460;28;19912;-46
2024/03/13 02:05:03;;;;;;;;;;;22.80;45.10;;;;;;5078214;28;19921;-45
2024/03/13 02:07:31;;;;;;;;;;;22.80;45.00;;;;;;5083894;28;20773;-46
2024/03/13 02:09:58;;;;;;;;;;;22.80;45.10;;;;;;5080980;28;19923;-46
2024/03/13 02:12:24;;;;;;;;;;;22.80;45.10;;;;;;5073914;28;19912;-46
2024/03/13 02:14:51;;;;;;;;;;;22.70;45.10;;;;;;5072426;28;19935;-46
2024/03/13 02:17:17;;;;;;;;;;;22.70;45.10;;;;;;5083946;28;19913;-46
2024/03/13 02:19:44;;;;;;;;;;;22.70;45.10;;;;;;5079077;28;19923;-49
2024/03/13 02:22:10;;;;;;;;;;;22.70;45.10;;;;;;5072529;28;19912;-47
2024/03/13 02:24:36;;;;;;;;;;;22.70;45.20;;;;;;5074458;28;20238;-47
2024/03/13 02:27:24;;;;;;;;;;;22.60;45.10;;;;;;5080665;28;19971;-47
2024/03/13 02:29:51;;;;;;;;;;;22.60;45.10;;;;;;5079351;28;19931;-45
2024/03/13 02:32:18;;;;;;;;;;;22.60;45.20;;;;;;5070417;28;19912;-47
2024/03/13 02:34:46;;;;;;;;;;;22.60;45.30;;;;;;5080310;28;19927;-46
2024/03/13 02:37:12;;;;;;;;;;;22.60;45.50;;;;;;5071733;28;19917;-46
2024/03/13 02:39:39;;;;;;;;;;;22.60;45.60;;;;;;5076253;28;19913;-46
2024/03/13 02:42:07;;;;;;;;;;;22.60;45.60;;;;;;5072925;28;19917;-45
2024/03/13 02:44:33;;;;;;;;;;;22.60;45.60;;;;;;5076083;28;19916;-47
2024/03/13 02:46:59;;;;;;;;;;;22.60;45.60;;;;;;5083581;28;19912;-46
2024/03/13 02:49:25;;;;;;;;;;;22.50;45.60;;;;;;5077294;28;19916;-45
2024/03/13 02:51:52;;;;;;;;;;;22.50;45.60;;;;;;5076225;28;19913;-45
2024/03/13 02:54:20;;;;;;;;;;;22.50;45.60;;;;;;5077683;28;19954;-49
2024/03/13 02:56:46;;;;;;;;;;;22.50;45.60;;;;;;5073061;28;20445;-48
2024/03/13 02:59:12;;;;;;;;;;;22.50;45.80;;;;;;5084533;28;19912;-47
2024/03/13 03:01:39;;;;;;;;;;;22.50;45.80;;;;;;5076425;28;19909;-49
2024/03/13 03:04:05;;;;;;;;;;;22.50;45.80;;;;;;5074381;28;19912;-47
2024/03/13 03:06:31;;;;;;;;;;;22.50;45.80;;;;;;5074514;28;20392;-43
2024/03/13 03:08:57;;;;;;;;;;;22.50;45.80;;;;;;5082523;28;19967;-44
2024/03/13 03:11:25;;;;;;;;;;;22.50;45.80;;;;;;5076930;28;19916;-44
2024/03/13 03:13:51;;;;;;;;;;;22.50;45.80;;;;;;5074669;28;19980;-46
2024/03/13 03:16:18;;;;;;;;;;;22.40;45.70;;;;;;5076321;28;19912;-44
2024/03/13 03:18:44;;;;;;;;;;;22.40;45.80;;;;;;5075883;28;19977;-43
2024/03/13 03:21:12;;;;;;;;;;;22.50;46.00;;;;;;5077530;28;19912;-43
2024/03/13 03:23:39;;;;;;;;;;;22.50;45.90;;;;;;5082882;28;19912;-46
2024/03/13 03:26:05;;;;;;;;;;;22.40;45.80;;;;;;5069564;28;19931;-43
2024/03/13 03:28:31;;;;;;;;;;;22.50;45.90;;;;;;5082586;28;19913;-44
2024/03/13 03:30:58;;;;;;;;;;;22.40;45.80;;;;;;5083691;28;19942;-45
2024/03/13 03:33:25;;;;;;;;;;;22.40;45.80;;;;;;5082757;28;20256;-43
2024/03/13 03:35:52;;;;;;;;;;;22.40;45.80;;;;;;5075502;28;19912;-46
2024/03/13 03:38:18;;;;;;;;;;;22.40;46.00;;;;;;5083401;28;19939;-44
2024/03/13 03:40:45;;;;;;;;;;;22.40;46.10;;;;;;5075496;28;19920;-44
2024/03/13 03:43:11;;;;;;;;;;;22.40;46.10;;;;;;5073532;28;19979;-46
2024/03/13 03:45:38;;;;;;;;;;;22.40;46.10;;;;;;5076057;28;19961;-46
2024/03/13 03:48:06;;;;;;;;;;;22.40;46.10;;;;;;5068483;28;19919;-44
2024/03/13 03:50:32;;;;;;;;;;;22.40;46.10;;;;;;5076652;28;19931;-44
2024/03/13 03:52:58;;;;;;;;;;;22.30;46.00;;;;;;5072742;28;19917;-44
2024/03/13 03:55:25;;;;;;;;;;;22.30;46.10;;;;;;5076311;28;19908;-46
2024/03/13 03:57:51;;;;;;;;;;;22.30;46.30;;;;;;5081732;28;19916;-45
2024/03/13 04:00:22;;;;;;;;;;;22.40;46.40;;;;;;5077599;28;20013;-44
2024/03/13 04:02:48;;;;;;;;;;;22.40;46.40;;;;;;5081030;28;20674;-45
2024/03/13 04:05:14;;;;;;;;;;;22.40;46.40;;;;;;5082454;28;19927;-45
2024/03/13 04:07:40;;;;;;;;;;;22.30;46.30;;;;;;5074755;28;19915;-44
2024/03/13 04:10:06;;;;;;;;;;;22.30;46.30;;;;;;5077971;28;19948;-43
2024/03/13 04:12:33;;;;;;;;;;;22.30;46.30;;;;;;5071494;28;20011;-42
2024/03/13 04:15:04;;;;;;;;;;;22.30;46.40;;;;;;5080877;28;19955;-41
2024/03/13 04:17:30;;;;;;;;;;;22.30;46.50;;;;;;5074471;28;19920;-47
2024/03/13 04:19:57;;;;;;;;;;;22.30;46.50;;;;;;5079718;28;19917;-44
2024/03/13 04:22:23;;;;;;;;;;;22.30;46.50;;;;;;5076194;28;19912;-44
2024/03/13 04:24:51;;;;;;;;;;;22.30;46.50;;;;;;5080148;28;19916;-45
2024/03/13 04:27:17;;;;;;;;;;;22.30;46.40;;;;;;5082453;28;19923;-42
2024/03/13 04:29:43;;;;;;;;;;;22.20;46.40;;;;;;5079233;28;19912;-44
2024/03/13 04:32:09;;;;;;;;;;;22.30;46.50;;;;;;5075052;28;20253;-43
2024/03/13 04:34:37;;;;;;;;;;;22.30;46.60;;;;;;5073680;28;19909;-42
2024/03/13 04:37:03;;;;;;;;;;;22.30;46.60;;;;;;5081235;28;19919;-42
2024/03/13 04:39:29;;;;;;;;;;;22.30;46.50;;;;;;5081962;28;19970;-46
2024/03/13 04:41:55;;;;;;;;;;;22.30;46.50;;;;;;5071481;28;19908;-44
2024/03/13 04:44:21;;;;;;;;;;;22.20;46.50;;;;;;5069454;28;19920;-44
2024/03/13 04:46:47;;;;;;;;;;;22.20;46.50;;;;;;5080506;28;19992;-44
2024/03/13 04:49:13;;;;;;;;;;;22.20;46.50;;;;;;5081581;28;19920;-45
2024/03/13 04:51:39;;;;;;;;;;;22.30;46.60;;;;;;5075837;28;19922;-42
2024/03/13 04:54:06;;;;;;;;;;;22.30;46.60;;;;;;5071704;28;20372;-42
2024/03/13 04:56:32;;;;;;;;;;;22.30;46.60;;;;;;5070941;28;19916;-43
2024/03/13 04:58:59;;;;;;;;;;;22.20;46.50;;;;;;5080709;28;19916;-45
2024/03/13 05:01:25;;;;;;;;;;;22.20;46.50;;;;;;5081306;28;19918;-44
2024/03/13 05:03:51;;;;;;;;;;;22.20;46.50;;;;;;5080303;28;19948;-42
2024/03/13 05:06:20;;;;;;;;;;;22.20;46.60;;;;;;5081808;28;19931;-46
2024/03/13 05:08:46;;;;;;;;;;;22.30;46.60;;;;;;5080912;28;19917;-42
2024/03/13 05:11:14;;;;;;;;;;;22.30;46.60;;;;;;5078644;28;19912;-44
2024/03/13 05:13:40;;;;;;;;;;;22.20;46.60;;;;;;5073945;28;19913;-43
2024/03/13 05:16:06;;;;;;;;;;;22.20;46.60;;;;;;5073626;28;19935;-45
2024/03/13 05:18:34;;;;;;;;;;;22.20;46.50;;;;;;5081223;28;19915;-43
2024/03/13 05:21:01;;;;;;;;;;;22.20;46.60;;;;;;5071809;28;19915;-45
2024/03/13 05:23:27;;;;;;;;;;;22.20;46.70;;;;;;5072965;28;19944;-45
2024/03/13 05:25:55;;;;;;;;;;;22.20;46.60;;;;;;5080547;28;19916;-42
2024/03/13 05:28:21;;;;;;;;;;;22.20;46.60;;;;;;5075731;28;20519;-42
2024/03/13 05:30:47;;;;;;;;;;;22.20;46.60;;;;;;5080396;28;19912;-44
2024/03/13 05:33:14;;;;;;;;;;;22.20;46.60;;;;;;5077437;28;19920;-44
2024/03/13 05:35:40;;;;;;;;;;;22.10;46.60;;;;;;5071153;28;19919;-43
2024/03/13 05:38:06;;;;;;;;;;;22.20;46.70;;;;;;5073573;28;19986;-44
2024/03/13 05:40:32;;;;;;;;;;;22.30;46.70;;;;;;5081503;28;19984;-45
2024/03/13 05:42:58;;;;;;;;;;;22.20;46.60;;;;;;5071001;28;19924;-42
2024/03/13 05:45:24;;;;;;;;;;;22.20;46.60;;;;;;5073264;28;19920;-43
2024/03/13 05:47:50;;;;;;;;;;;22.20;46.60;;;;;;5075916;28;19917;-42
2024/03/13 05:50:20;;;;;;;;;;;22.10;46.50;;;;;;5075927;28;19908;-44
2024/03/13 05:52:46;;;;;;;;;;;22.10;46.60;;;;;;5069681;28;19972;-42
2024/03/13 05:55:13;;;;;;;;;;;22.20;46.70;;;;;;5074924;28;19947;-47
2024/03/13 05:57:39;;;;;;;;;;;22.20;46.70;;;;;;5074899;28;19908;-47
2024/03/13 06:00:12;;;;;;;;;;;22.20;46.60;;;;;;5073779;28;19908;-43
2024/03/13 06:02:38;;;;;;;;;;;22.20;46.60;;;;;;5072453;28;19908;-43
2024/03/13 06:05:14;;;;;;;;;;;22.10;46.50;;;;;;5064735;28;20262;-43
2024/03/13 06:07:40;;;;;;;;;;;22.10;46.60;;;;;;5063819;28;19909;-45
2024/03/13 06:10:08;;;;;;;;;;;22.20;46.70;;;;;;5063321;28;20821;-43
2024/03/13 06:12:34;;;;;;;;;;;22.20;46.70;;;;;;5063763;28;19908;-45
2024/03/13 06:15:06;;;;;;;;;;;22.20;46.70;;;;;;5063525;28;19908;-42
2024/03/13 06:17:33;;;;;;;;;;;22.20;46.70;;;;;;5070090;28;19909;-45
2024/03/13 06:19:59;;;;;;;;;;;22.10;46.60;;;;;;5065323;28;19972;-43
2024/03/13 06:22:25;;;;;;;;;;;22.10;46.60;;;;;;5074292;28;19913;-43
2024/03/13 06:24:51;;;;;;;;;;;22.10;46.70;;;;;;5074610;28;19952;-43
2024/03/13 06:27:27;;;;;;;;;;;22.20;46.80;;;;;;5075808;28;19913;-43
2024/03/13 06:29:57;;;;;;;;;;;22.20;46.80;;;;;;5083304;28;19915;-43
2024/03/13 06:32:24;;;;;;;;;;;22.20;46.80;;;;;;5075875;28;19909;-45
2024/03/13 06:34:51;;;;;;;;;;;22.10;46.60;;;;;;5081154;28;19935;-43
2024/03/13 06:37:17;;;;;;;;;;;22.10;46.60;;;;;;5066341;28;19912;-44
2024/03/13 06:39:43;;;;;;;;;;;22.10;46.70;;;;;;5073673;28;19919;-44
2024/03/13 06:42:12;;;;;;;;;;;22.10;46.80;;;;;;5077573;28;19908;-42
2024/03/13 06:44:38;;;;;;;;;;;22.20;46.80;;;;;;5069821;28;20073;-43
2024/03/13 06:47:04;;;;;;;;;;;22.20;46.80;;;;;;5073081;28;19915;-43
2024/03/13 06:49:30;;;;;;;;;;;22.20;46.80;;;;;;5072538;28;19935;-43
2024/03/13 06:51:56;;;;;;;;;;;22.10;46.70;;;;;;5077569;28;19917;-43
2024/03/13 06:54:23;;;;;;;;;;;22.10;46.70;;;;;;5074153;28;19938;-43
2024/03/13 06:56:49;;;;;;;;;;;22.10;46.80;;;;;;5080601;28;20254;-44
2024/03/13 06:59:19;;;;;;;;;;;22.10;46.80;;;;;;5080635;28;19913;-45
2024/03/13 07:01:47;;;;;;;;;;;22.20;46.90;;;;;;5073667;28;19919;-42
2024/03/13 07:04:13;;;;;;;;;;;22.20;46.80;;;;;;5072553;28;19912;-44
2024/03/13 07:06:41;;;;;;;;;;;22.10;46.80;;;;;;5071269;28;20019;-45
2024/03/13 07:09:07;;;;;;;;;;;22.10;46.70;;;;;;5077793;28;19916;-44
2024/03/13 07:11:34;;;;;;;;;;;22.10;46.70;;;;;;5065388;28;19913;-43
2024/03/13 07:14:01;;;;;;;;;;;22.10;46.80;;;;;;5074446;28;19913;-45
2024/03/13 07:16:27;;;;;;;;;;;22.10;46.90;;;;;;5080300;28;19916;-47
2024/03/13 07:18:55;;;;;;;;;;;22.10;46.80;;;;;;5071785;28;19974;-43
2024/03/13 07:21:21;;;;;;;;;;;22.10;47.30;;;;;;5083546;28;19940;-44
2024/03/13 07:23:47;;;;;;;;;;;22.10;46.80;;;;;;5085612;28;19919;-45
2024/03/13 07:26:13;;;;;;;;;;;22.10;46.80;;;;;;5084743;28;20743;-45
2024/03/13 07:28:39;;;;;;;;;;;22.10;46.90;;;;;;5084801;28;19972;-48
2024/03/13 07:31:07;;;;;;;;;;;22.10;46.90;;;;;;5073891;28;20345;-44
2024/03/13 07:33:33;;;;;;;;;;;22.10;46.90;;;;;;5082898;28;19909;-47
2024/03/13 07:35:59;;;;;;;;;;;22.10;46.90;;;;;;5083609;28;19916;-45
2024/03/13 07:38:25;;;;;;;;;;;22.10;46.90;;;;;;5084391;28;19915;-43
2024/03/13 07:40:52;;;;;;;;;;;22.00;46.80;;;;;;5074403;28;19919;-45
2024/03/13 07:43:18;;;;;;;;;;;22.00;46.90;;;;;;5073365;28;19999;-46
2024/03/13 07:45:44;;;;;;;;;;;22.10;47.00;;;;;;5074012;28;19952;-46
2024/03/13 07:48:10;;;;;;;;;;;22.10;46.90;;;;;;5076752;28;19908;-45
2024/03/13 07:50:36;;;;;;;;;;;22.10;46.90;;;;;;5084494;28;19918;-44
2024/03/13 07:53:03;;;;;;;;;;;22.10;47.00;;;;;;5080292;28;19988;-45
2024/03/13 07:55:29;;;;;;;;;;;22.00;46.80;;;;;;5077694;28;19917;-43
2024/03/13 07:57:55;;;;;;;;;;;22.00;46.80;;;;;;5081064;28;19909;-45
2024/03/13 08:00:22;;;;;;;;;;;22.00;47.50;;;;;;5072276;28;19913;-50
2024/03/13 08:02:54;;;;;;;;;;;22.10;47.00;;;;;;5073500;28;19952;-44
2024/03/13 08:05:20;;;;;;;;;;;22.10;47.00;;;;;;5065618;28;19921;-44
2024/03/13 08:07:47;;;;;;;;;;;22.10;46.90;;;;;;5066712;28;19980;-43
2024/03/13 08:10:15;;;;;;;;;;;22.00;46.90;;;;;;5065611;28;19916;-43
2024/03/13 08:12:41;;;;;;;;;;;22.00;46.90;;;;;;5065892;28;19913;-44
2024/03/13 08:15:08;;;;;;;;;;;22.00;47.00;;;;;;5072944;28;20433;-46
2024/03/13 08:17:35;;;;;;;;;;;22.10;47.00;;;;;;5073948;28;19909;-43
2024/03/13 08:20:01;;;;;;;;;;;22.10;47.00;;;;;;5072349;28;19919;-43
2024/03/13 08:22:27;;;;;;;;;;;22.00;46.90;;;;;;5075915;28;19944;-44
2024/03/13 08:24:53;;;;;;;;;;;22.00;46.90;;;;;;5080603;28;19924;-47
2024/03/13 08:27:19;;;;;;;;;;;22.00;46.90;;;;;;5076512;28;20007;-44
2024/03/13 08:29:45;;;;;;;;;;;22.00;47.00;;;;;;5072963;28;19982;-45
2024/03/13 08:32:11;;;;;;;;;;;22.10;47.00;;;;;;5070480;28;19915;-44
2024/03/13 08:34:38;;;;;;;;;;;22.10;47.00;;;;;;5072060;28;19916;-47
2024/03/13 08:37:04;;;;;;;;;;;22.00;46.90;;;;;;5065849;28;19912;-44
2024/03/13 08:39:30;;;;;;;;;;;22.00;46.90;;;;;;5073367;28;19916;-47
2024/03/13 08:41:55;;;;;;;;;;;22.00;46.90;;;;;;5075723;28;19912;-44
2024/03/13 08:44:21;;;;;;;;;;;22.00;47.00;;;;;;5075645;28;19920;-45
2024/03/13 08:46:50;;;;;;;;;;;22.00;47.00;;;;;;5072963;28;19928;-45
2024/03/13 08:49:16;;;;;;;;;;;22.00;46.90;;;;;;5067873;28;20015;-44
2024/03/13 08:51:42;;;;;;;;;;;22.00;46.90;;;;;;5067935;28;20412;-46
2024/03/13 08:54:11;;;;;;;;;;;22.00;46.90;;;;;;5076159;28;19913;-43
2024/03/13 08:56:38;;;;;;;;;;;21.90;46.90;;;;;;5073003;28;20384;-42
2024/03/13 08:59:04;;;;;;;;;;;22.00;47.00;;;;;;5072514;28;19912;-44
2024/03/13 09:01:44;;;;;;;;;;;22.00;47.00;;;;;;5079032;28;19916;-45
2024/03/13 09:04:10;;;;;;;;;;;22.00;47.00;;;;;;5065476;28;19944;-42
2024/03/13 09:06:36;;;;;;;;;;;22.00;46.90;;;;;;5074229;28;20003;-44
2024/03/13 09:09:05;;;;;;;;;;;22.00;46.90;;;;;;5072486;28;19933;-44
2024/03/13 09:11:31;;;;;;;;;;;21.90;46.90;;;;;;5071312;28;20394;-45
2024/03/13 09:14:01;;;;;;;;;;;21.90;47.00;;;;;;5072805;28;19912;-45
2024/03/13 09:16:31;;;;;;;;;;;22.00;47.00;;;;;;5064924;28;20501;-43
2024/03/13 09:18:57;;;;;;;;;;;22.00;47.00;;;;;;5072324;28;19924;-43
2024/03/13 09:21:23;;;;;;;;;;;22.00;46.90;;;;;;5069598;28;19924;-44
2024/03/13 09:23:52;;;;;;;;;;;22.00;47.00;;;;;;5078776;28;19999;-46
2024/03/13 09:26:18;;;;;;;;;;;21.90;46.90;;;;;;5073970;28;19927;-48
2024/03/13 09:28:45;;;;;;;;;;;22.00;47.00;;;;;;5072072;28;20027;-45
2024/03/13 09:31:11;;;;;;;;;;;22.00;47.00;;;;;;5064651;28;19919;-45
2024/03/13 09:33:38;;;;;;;;;;;22.00;47.00;;;;;;5073246;28;19940;-46
2024/03/13 09:36:13;;;;;;;;;;;22.00;46.90;;;;;;5067465;28;19913;-45
2024/03/13 09:38:40;;;;;;;;;;;21.90;46.90;;;;;;5081543;28;19955;-46
2024/03/13 09:41:06;;;;;;;;;;;21.90;46.90;;;;;;5074899;28;19946;-44
2024/03/13 09:43:32;;;;;;;;;;;21.90;47.00;;;;;;5074773;28;19920;-45
2024/03/13 09:45:58;;;;;;;;;;;22.00;47.00;;;;;;5080568;28;19931;-45
2024/03/13 09:48:24;;;;;;;;;;;22.00;47.00;;;;;;5076672;28;19912;-44
2024/03/13 09:50:50;;;;;;;;;;;22.00;47.00;;;;;;5079078;28;19961;-43
2024/03/13 09:53:16;;;;;;;;;;;21.90;46.90;;;;;;5081646;28;19917;-46
2024/03/13 09:55:44;;;;;;;;;;;21.90;47.00;;;;;;5081070;28;19913;-45
2024/03/13 09:58:11;;;;;;;;;;;21.90;47.00;;;;;;5079369;28;20436;-44
2024/03/13 10:00:38;;;;;;;;;;;22.00;47.00;;;;;;5080255;28;19916;-44
2024/03/13 10:03:07;;;;;;;;;;;22.00;47.00;;;;;;5076510;28;19919;-43
2024/03/13 10:05:33;;;;;;;;;;;22.00;47.00;;;;;;5077830;28;20094;-45
2024/03/13 10:07:59;;;;;;;;;;;21.90;47.50;;;;;;5084295;28;19916;-47
2024/03/13 10:10:26;;;;;;;;;;;21.90;47.00;;;;;;5074141;28;19913;-43
2024/03/13 10:12:55;;;;;;;;;;;21.90;47.00;;;;;;5081658;28;19912;-43
2024/03/13 10:15:21;;;;;;;;;;;22.00;47.00;;;;;;5074700;28;19909;-45
2024/03/13 10:18:13;;;;;;;;;;;22.00;47.00;;;;;;5074776;28;19947;-43
2024/03/13 10:20:43;;;;;;;;;;;22.00;47.00;;;;;;5074681;28;19912;-47
2024/03/13 10:23:11;;;;;;;;;;;21.90;46.90;;;;;;5068155;28;19924;-44
2024/03/13 10:25:37;;;;;;;;;;;21.90;47.00;;;;;;5082651;28;19942;-45
2024/03/13 10:28:04;;;;;;;;;;;21.90;47.00;;;;;;5078801;28;19998;-45
2024/03/13 10:30:29;;;;;;;;;;;22.00;47.10;;;;;;5072560;28;19979;-44
2024/03/13 10:32:55;;;;;;;;;;;21.90;47.00;;;;;;5080378;28;19947;-44
2024/03/13 10:35:24;;;;;;;;;;;21.90;47.00;;;;;;5076107;28;19919;-45
2024/03/13 10:37:50;;;;;;;;;;;21.90;47.00;;;;;;5076743;28;19946;-43
2024/03/13 10:40:16;;;;;;;;;;;21.90;47.00;;;;;;5084572;28;19908;-43
2024/03/13 10:42:42;;;;;;;;;;;21.90;47.10;;;;;;5075401;28;19957;-45
2024/03/13 10:45:12;;;;;;;;;;;22.00;47.10;;;;;;5084139;28;20015;-44
2024/03/13 10:47:38;;;;;;;;;;;22.00;47.10;;;;;;5083949;28;19909;-45
2024/03/13 10:50:05;;;;;;;;;;;21.90;47.00;;;;;;5083733;28;19908;-43
2024/03/13 10:52:30;;;;;;;;;;;21.90;47.00;;;;;;5083929;28;19915;-44
2024/03/13 10:54:56;;;;;;;;;;;21.90;47.00;;;;;;5083409;28;19952;-44
2024/03/13 10:57:23;;;;;;;;;;;21.90;47.10;;;;;;5084118;28;19912;-45
2024/03/13 10:59:49;;;;;;;;;;;21.90;47.00;;;;;;5083533;28;19904;-46
2024/03/13 11:02:15;;;;;;;;;;;22.00;47.10;;;;;;5080012;28;19915;-45
2024/03/13 11:04:43;;;;;;;;;;;21.90;47.00;;;;;;5086526;28;19912;-43
2024/03/13 11:07:12;;;;;;;;;;;21.90;47.00;;;;;;5083532;28;19934;-44
2024/03/13 11:09:38;;;;;;;;;;;21.90;47.00;;;;;;5078084;28;19995;-44
2024/03/13 11:12:07;;;;;;;;;;;21.90;47.70;;;;;;5083129;28;19912;-44
2024/03/13 11:14:33;;;;;;;;;;;21.90;47.00;;;;;;5075593;28;19908;-45
2024/03/13 11:16:59;;;;;;;;;;;21.90;47.00;;;;;;5075511;28;19970;-43
2024/03/13 11:19:27;;;;;;;;;;;21.90;47.00;;;;;;5084170;28;19921;-44
2024/03/13 11:21:55;;;;;;;;;;;21.90;47.00;;;;;;5082558;28;19912;-45
2024/03/13 11:24:25;;;;;;;;;;;21.80;47.00;;;;;;5070884;28;19909;-43
2024/03/13 11:26:51;;;;;;;;;;;21.90;47.10;;;;;;5079326;28;19920;-43
2024/03/13 11:29:17;;;;;;;;;;;21.90;47.10;;;;;;5083760;28;20528;-47
2024/03/13 11:31:44;;;;;;;;;;;21.90;47.00;;;;;;5076850;28;19916;-42
2024/03/13 11:34:10;;;;;;;;;;;21.90;47.00;;;;;;5076702;28;19919;-43
2024/03/13 11:36:36;;;;;;;;;;;21.90;47.00;;;;;;5084910;28;20356;-43
2024/03/13 11:39:03;;;;;;;;;;;21.80;47.10;;;;;;5082635;28;19970;-43
2024/03/13 11:41:29;;;;;;;;;;;21.90;47.10;;;;;;5083406;28;20635;-43
2024/03/13 11:43:56;;;;;;;;;;;21.90;47.10;;;;;;5068673;28;19927;-43
2024/03/13 11:46:28;;;;;;;;;;;21.90;47.00;;;;;;5081333;28;19920;-44
2024/03/13 11:48:56;;;;;;;;;;;21.90;47.10;;;;;;5073725;28;20473;-45
2024/03/13 11:51:23;;;;;;;;;;;21.80;47.00;;;;;;5077768;28;20015;-45
2024/03/13 11:53:49;;;;;;;;;;;21.80;47.10;;;;;;5082667;28;19912;-44
2024/03/13 11:56:21;;;;;;;;;;;21.90;47.10;;;;;;5079642;28;19919;-44
2024/03/13 11:58:47;;;;;;;;;;;21.90;47.10;;;;;;5080231;28;19917;-46
2024/03/13 12:01:13;;;;;;;;;;;21.90;47.00;;;;;;5083221;28;19912;-48
2024/03/13 12:03:42;;;;;;;;;;;21.90;47.00;;;;;;5074763;28;20027;-45
2024/03/13 12:06:23;;;;;;;;;;;21.80;47.00;;;;;;5073934;28;19932;-43
2024/03/13 12:08:49;;;;;;;;;;;21.80;47.10;;;;;;5068121;28;19915;-43
2024/03/13 12:11:16;;;;;;;;;;;21.90;47.10;;;;;;5074448;28;19912;-43
2024/03/13 12:13:42;;;;;;;;;;;21.90;47.10;;;;;;5082115;28;19916;-43
2024/03/13 12:16:09;;;;;;;;;;;21.90;47.10;;;;;;5080705;28;19913;-45
2024/03/13 12:18:35;;;;;;;;;;;21.90;47.00;;;;;;5082065;28;19909;-45
2024/03/13 12:21:01;;;;;;;;;;;21.80;47.00;;;;;;5072829;28;19912;-44
2024/03/13 12:23:27;;;;;;;;;;;21.80;47.10;;;;;;5077588;28;20412;-45
2024/03/13 12:25:53;;;;;;;;;;;21.90;47.10;;;;;;5074702;28;19920;-45
2024/03/13 12:28:21;;;;;;;;;;;21.90;47.10;;;;;;5073439;28;20267;-44
2024/03/13 12:30:48;;;;;;;;;;;21.90;47.10;;;;;;5066790;28;19921;-47
2024/03/13 12:33:14;;;;;;;;;;;21.90;47.10;;;;;;5076889;28;19958;-44
2024/03/13 12:35:41;;;;;;;;;;;21.80;47.00;;;;;;5075005;28;19916;-43
2024/03/13 12:38:06;;;;;;;;;;;21.80;47.10;;;;;;5074434;28;20459;-46
2024/03/13 12:40:36;;;;;;;;;;;21.90;47.10;;;;;;5083652;28;19912;-43
2024/03/13 12:43:04;;;;;;;;;;;21.90;47.10;;;;;;5083140;28;20464;-44
2024/03/13 12:45:31;;;;;;;;;;;21.90;47.10;;;;;;5082957;28;19920;-45
2024/03/13 12:47:57;;;;;;;;;;;21.90;47.10;;;;;;5074505;28;19944;-45
2024/03/13 12:50:24;;;;;;;;;;;21.80;47.00;;;;;;5071483;28;19934;-45
2024/03/13 12:52:49;;;;;;;;;;;21.90;47.10;;;;;;5075556;28;19952;-45
2024/03/13 12:55:21;;;;;;;;;;;21.90;47.10;;;;;;5068604;28;19913;-44
2024/03/13 12:57:47;;;;;;;;;;;21.90;47.10;;;;;;5087200;28;19911;-44
2024/03/13 13:00:13;;;;;;;;;;;21.90;47.10;;;;;;5083429;28;19916;-44
2024/03/13 13:02:42;;;;;;;;;;;21.90;47.10;;;;;;5079197;28;19912;-44
2024/03/13 13:05:08;;;;;;;;;;;21.80;47.00;;;;;;5078496;28;19944;-48
2024/03/13 13:07:38;;;;;;;;;;;21.90;47.10;;;;;;5073669;28;19909;-45
2024/03/13 13:10:08;;;;;;;;;;;21.90;47.10;;;;;;5075080;28;19908;-46
2024/03/13 13:12:34;;;;;;;;;;;21.90;47.20;;;;;;5081616;28;20568;-44
2024/03/13 13:15:01;;;;;;;;;;;21.90;47.20;;;;;;5074041;28;19919;-47
2024/03/13 13:17:27;;;;;;;;;;;21.90;47.20;;;;;;5078353;28;20003;-44
2024/03/13 13:19:53;;;;;;;;;;;21.90;47.30;;;;;;5072437;28;19995;-45
2024/03/13 13:22:18;;;;;;;;;;;21.90;47.60;;;;;;5075813;28;19947;-44
2024/03/13 13:24:44;;;;;;;;;;;22.00;47.70;;;;;;5073696;28;19962;-44
2024/03/13 13:27:13;;;;;;;;;;;22.00;47.70;;;;;;5075262;28;19980;-43
2024/03/13 13:29:39;;;;;;;;;;;22.00;48.30;;;;;;5066574;28;19956;-42
2024/03/13 13:32:05;;;;;;;;;;;22.00;48.80;;;;;;5069548;28;19909;-43
2024/03/13 13:34:31;;;;;;;;;;;21.90;48.80;;;;;;5075613;28;20116;-43
2024/03/13 13:36:57;;;;;;;;;;;21.90;48.90;;;;;;5080253;28;20692;-45
2024/03/13 13:39:23;;;;;;;;;;;21.90;48.90;;;;;;5081897;28;20029;-43
2024/03/13 13:41:49;;;;;;;;;;;21.90;48.90;;;;;;5072228;28;19912;-44
2024/03/13 13:44:15;;;;;;;;;;;21.90;49.20;;;;;;5073791;28;19924;-43
2024/03/13 13:46:41;;;;;;;;;;;22.00;49.60;;;;;;5068098;28;19913;-43
2024/03/13 13:49:07;;;;;;;;;;;22.00;49.00;;;;;;5075230;28;19993;-44
2024/03/13 13:51:34;;;;;;;;;;;22.00;49.10;;;;;;5068359;28;19912;-45
2024/03/13 13:54:00;;;;;;;;;;;22.00;49.10;;;;;;5074695;28;19919;-43
2024/03/13 13:56:26;;;;;;;;;;;22.00;49.20;;;;;;5076741;28;19951;-46
2024/03/13 13:58:52;;;;;;;;;;;22.00;49.30;;;;;;5069595;28;19917;-44
2024/03/13 14:01:19;;;;;;;;;;;22.00;49.40;;;;;;5069284;28;19987;-45
2024/03/13 14:03:45;;;;;;;;;;;22.00;49.20;;;;;;5074038;28;19934;-41
2024/03/13 14:06:11;;;;;;;;;;;22.10;49.20;;;;;;5075482;28;19998;-44
2024/03/13 14:08:38;;;;;;;;;;;22.10;49.30;;;;;;5074885;28;19955;-45
2024/03/13 14:11:06;;;;;;;;;;;22.10;49.20;;;;;;5069655;28;19919;-42
2024/03/13 14:13:38;;;;;;;;;;;22.10;49.20;;;;;;5069673;28;19915;-42
2024/03/13 14:16:04;;;;;;;;;;;22.10;49.60;;;;;;5074970;28;19912;-42
2024/03/13 14:18:31;;;;;;;;;;;22.10;49.60;;;;;;5066784;28;19912;-43
2024/03/13 14:20:57;;;;;;;;;;;22.10;49.40;;;;;;5076427;28;20460;-43
2024/03/13 14:23:23;;;;;;;;;;;22.20;49.40;;;;;;5073093;28;19916;-43
2024/03/13 14:25:49;;;;;;;;;;;22.20;49.20;;;;;;5069530;28;19921;-43
2024/03/13 14:28:15;;;;;;;;;;;22.20;49.10;;;;;;5070892;28;19919;-41
2024/03/13 14:30:40;;;;;;;;;;;22.20;48.90;;;;;;5071018;28;19947;-43
2024/03/13 14:33:06;;;;;;;;;;;22.10;48.80;;;;;;5073730;28;19923;-48